Time,TemperatureF,DewpointF,PressureIn,WindDirection,WindDirectionDegrees,WindSpeedMPH,WindSpeedGustMPH,Humidity,HourlyPrecipIn,Conditions,Clouds,dailyrainin,SoftwareType,DateUTC
2013-03-26 00:00:00,37.1,24.1,29.81,North,0,0.0,0.0,59,0.00,,,0.00,WUHU216HW,2013-03-26 04:00:00,
2013-03-26 00:05:00,37.1,24.1,29.81,North,0,0.0,0.0,59,0.00,,,0.00,WUHU216HW,2013-03-26 04:05:00,
2013-03-26 00:30:00,37.4,24.4,29.82,North,0,0.0,0.0,59,0.00,,,0.00,WUHU216HW,2013-03-26 04:30:00,
2013-03-26 00:35:00,37.4,24.4,29.82,North,0,0.0,0.0,59,0.00,,,0.00,WUHU216HW,2013-03-26 04:35:00,
2013-03-26 01:00:00,37.6,24.6,29.82,North,0,0.0,0.0,59,0.00,,,0.00,WUHU216HW,2013-03-26 05:00:00,
2013-03-26 01:05:00,37.6,24.6,29.82,North,0,0.0,0.0,59,0.00,,,0.00,WUHU216HW,2013-03-26 05:05:00,
2013-03-26 01:30:00,37.6,24.6,29.82,North,0,0.0,0.0,59,0.00,,,0.00,WUHU216HW,2013-03-26 05:30:00,
2013-03-26 01:35:00,37.6,24.6,29.82,North,0,0.0,0.0,59,0.00,,,0.00,WUHU216HW,2013-03-26 05:35:00,
2013-03-26 02:00:00,37.4,24.8,29.83,North,0,0.0,0.0,60,0.00,,,0.00,WUHU216HW,2013-03-26 06:00:00,
2013-03-26 02:05:00,37.4,24.8,29.83,North,0,0.0,0.0,60,0.00,,,0.00,WUHU216HW,2013-03-26 06:05:00,
2013-03-26 02:30:00,37.1,24.9,29.83,North,0,0.0,0.0,61,0.00,,,0.00,WUHU216HW,2013-03-26 06:30:00,
2013-03-26 02:35:00,37.1,24.9,29.83,North,0,0.0,0.0,61,0.00,,,0.00,WUHU216HW,2013-03-26 06:35:00,
2013-03-26 03:00:00,36.9,25.1,29.83,North,0,0.0,0.0,62,0.00,,,0.00,WUHU216HW,2013-03-26 07:00:00,
2013-03-26 03:05:00,36.9,25.1,29.83,North,0,0.0,0.0,62,0.00,,,0.00,WUHU216HW,2013-03-26 07:05:00,
2013-03-26 03:30:00,37.1,25.3,29.83,North,0,0.0,0.0,62,0.00,,,0.00,WUHU216HW,2013-03-26 07:30:00,
2013-03-26 03:35:00,37.1,25.3,29.83,North,0,0.0,0.0,62,0.00,,,0.00,WUHU216HW,2013-03-26 07:35:00,
2013-03-26 04:00:00,36.5,25.1,29.83,North,0,0.0,0.0,63,0.00,,,0.00,WUHU216HW,2013-03-26 08:00:00,
2013-03-26 04:05:00,36.5,25.1,29.83,North,0,0.0,0.0,63,0.00,,,0.00,WUHU216HW,2013-03-26 08:05:00,
2013-03-26 04:30:00,36.4,24.9,29.83,North,0,0.0,0.0,63,0.00,,,0.00,WUHU216HW,2013-03-26 08:30:00,
2013-03-26 04:35:00,36.4,24.9,29.83,North,0,0.0,0.0,63,0.00,,,0.00,WUHU216HW,2013-03-26 08:35:00,
2013-03-26 05:00:00,35.8,24.5,29.84,North,0,0.0,0.0,63,0.00,,,0.00,WUHU216HW,2013-03-26 09:00:00,
2013-03-26 05:05:00,35.8,24.5,29.84,North,0,0.0,0.0,63,0.00,,,0.00,WUHU216HW,2013-03-26 09:05:00,
2013-03-26 05:30:00,35.3,24.7,29.85,North,0,0.0,0.0,65,0.00,,,0.00,WUHU216HW,2013-03-26 09:30:00,
2013-03-26 05:35:00,35.3,24.7,29.85,North,0,0.0,0.0,65,0.00,,,0.00,WUHU216HW,2013-03-26 09:35:00,
2013-03-26 06:00:00,34.2,23.6,29.86,North,0,0.0,0.0,65,0.00,,,0.00,WUHU216HW,2013-03-26 10:00:00,
2013-03-26 06:05:00,34.2,23.6,29.86,North,0,0.0,0.0,65,0.00,,,0.00,WUHU216HW,2013-03-26 10:05:00,
2013-03-26 06:30:00,33.1,23.3,29.86,North,0,0.0,0.0,67,0.00,,,0.00,WUHU216HW,2013-03-26 10:30:00,
2013-03-26 06:35:00,33.1,23.3,29.86,North,0,0.0,0.0,67,0.00,,,0.00,WUHU216HW,2013-03-26 10:35:00,
2013-03-26 07:00:00,32.0,22.3,29.87,North,0,0.0,0.0,67,0.00,,,0.00,WUHU216HW,2013-03-26 11:00:00,
2013-03-26 07:05:00,32.0,22.3,29.87,North,0,0.0,0.0,67,0.00,,,0.00,WUHU216HW,2013-03-26 11:05:00,
2013-03-26 07:30:00,31.7,20.9,29.88,North,0,0.0,0.0,64,0.00,,,0.00,WUHU216HW,2013-03-26 11:30:00,
2013-03-26 07:35:00,31.7,20.9,29.88,North,0,0.0,0.0,64,0.00,,,0.00,WUHU216HW,2013-03-26 11:35:00,
2013-03-26 08:00:00,32.0,20.5,29.88,North,0,0.0,0.0,62,0.00,,,0.00,WUHU216HW,2013-03-26 12:00:00,
2013-03-26 08:05:00,32.0,20.5,29.88,North,0,0.0,0.0,62,0.00,,,0.00,WUHU216HW,2013-03-26 12:05:00,
2013-03-26 08:30:00,34.7,23.0,29.89,North,0,0.0,0.0,62,0.00,,,0.00,WUHU216HW,2013-03-26 12:30:00,
2013-03-26 08:35:00,34.7,23.0,29.89,North,0,0.0,0.0,62,0.00,,,0.00,WUHU216HW,2013-03-26 12:35:00,
2013-03-26 09:00:00,37.3,25.5,29.91,North,0,0.0,0.0,62,0.00,,,0.00,WUHU216HW,2013-03-26 13:00:00,
2013-03-26 09:05:00,37.3,25.5,29.91,North,0,0.0,0.0,62,0.00,,,0.00,WUHU216HW,2013-03-26 13:05:00,
2013-03-26 09:30:00,39.4,27.8,29.91,North,0,0.0,0.0,63,0.00,,,0.00,WUHU216HW,2013-03-26 13:30:00,
2013-03-26 09:35:00,39.4,27.8,29.91,North,0,0.0,0.0,63,0.00,,,0.00,WUHU216HW,2013-03-26 13:35:00,
2013-03-26 10:00:00,41.8,26.3,29.91,North,0,0.0,0.0,54,0.00,,,0.00,WUHU216HW,2013-03-26 14:00:00,
2013-03-26 10:05:00,41.8,26.3,29.91,North,0,0.0,0.0,54,0.00,,,0.00,WUHU216HW,2013-03-26 14:05:00,
2013-03-26 10:30:00,43.2,27.2,29.91,North,0,0.0,0.0,53,0.00,,,0.00,WUHU216HW,2013-03-26 14:30:00,
2013-03-26 10:35:00,43.2,27.2,29.91,North,0,0.0,0.0,53,0.00,,,0.00,WUHU216HW,2013-03-26 14:35:00,
2013-03-26 11:00:00,44.6,27.6,29.92,North,0,0.0,0.0,51,0.00,,,0.00,WUHU216HW,2013-03-26 15:00:00,
2013-03-26 11:05:00,44.6,27.6,29.92,North,0,0.0,0.0,51,0.00,,,0.00,WUHU216HW,2013-03-26 15:05:00,
2013-03-26 11:30:00,46.1,29.8,29.92,North,0,0.0,0.0,53,0.00,,,0.00,WUHU216HW,2013-03-26 15:30:00,
2013-03-26 11:35:00,46.1,29.8,29.92,North,0,0.0,0.0,53,0.00,,,0.00,WUHU216HW,2013-03-26 15:35:00,
2013-03-26 12:00:00,46.4,27.7,29.92,North,0,0.0,0.0,48,0.00,,,0.00,WUHU216HW,2013-03-26 16:00:00,
2013-03-26 12:05:00,46.4,27.7,29.92,North,0,0.0,0.0,48,0.00,,,0.00,WUHU216HW,2013-03-26 16:05:00,
2013-03-26 12:30:00,45.9,28.8,29.93,North,0,0.0,0.0,51,0.00,,,0.00,WUHU216HW,2013-03-26 16:30:00,
2013-03-26 12:35:00,45.9,28.8,29.93,North,0,0.0,0.0,51,0.00,,,0.00,WUHU216HW,2013-03-26 16:35:00,
2013-03-26 13:00:00,46.4,28.3,29.93,North,0,0.0,0.0,49,0.00,,,0.00,WUHU216HW,2013-03-26 17:00:00,
2013-03-26 13:05:00,46.4,28.3,29.93,North,0,0.0,0.0,49,0.00,,,0.00,WUHU216HW,2013-03-26 17:05:00,
2013-03-26 13:30:00,45.7,29.1,29.93,North,0,0.0,0.0,52,0.00,,,0.00,WUHU216HW,2013-03-26 17:30:00,
2013-03-26 13:35:00,45.7,29.1,29.93,North,0,0.0,0.0,52,0.00,,,0.00,WUHU216HW,2013-03-26 17:35:00,
2013-03-26 14:00:00,46.4,28.8,29.93,North,0,0.0,0.0,50,0.00,,,0.00,WUHU216HW,2013-03-26 18:00:00,
2013-03-26 14:05:00,46.4,28.8,29.93,North,0,0.0,0.0,50,0.00,,,0.00,WUHU216HW,2013-03-26 18:05:00,
2013-03-26 14:30:00,46.8,29.6,29.93,North,0,0.0,0.0,51,0.00,,,0.00,WUHU216HW,2013-03-26 18:30:00,
2013-03-26 14:35:00,46.8,29.6,29.93,North,0,0.0,0.0,51,0.00,,,0.00,WUHU216HW,2013-03-26 18:35:00,
2013-03-26 15:00:00,46.8,28.6,29.93,North,0,0.0,0.0,49,0.00,,,0.00,WUHU216HW,2013-03-26 19:00:00,
2013-03-26 15:05:00,46.8,28.6,29.93,North,0,0.0,0.0,49,0.00,,,0.00,WUHU216HW,2013-03-26 19:05:00,
2013-03-26 15:30:00,46.8,27.6,29.93,North,0,0.0,0.0,47,0.00,,,0.00,WUHU216HW,2013-03-26 19:30:00,
2013-03-26 15:35:00,46.8,27.6,29.93,North,0,0.0,0.0,47,0.00,,,0.00,WUHU216HW,2013-03-26 19:35:00,
2013-03-26 16:00:00,47.0,28.7,29.94,North,0,0.0,0.0,49,0.00,,,0.00,WUHU216HW,2013-03-26 20:00:00,
2013-03-26 16:05:00,47.0,28.7,29.94,North,0,0.0,0.0,49,0.00,,,0.00,WUHU216HW,2013-03-26 20:05:00,
2013-03-26 16:30:00,46.8,28.6,29.94,North,0,0.0,0.0,49,0.00,,,0.00,WUHU216HW,2013-03-26 20:30:00,
2013-03-26 16:35:00,46.8,28.6,29.94,North,0,0.0,0.0,49,0.00,,,0.00,WUHU216HW,2013-03-26 20:35:00,
2013-03-26 17:00:00,46.8,28.6,29.96,North,0,0.0,0.0,49,0.00,,,0.00,WUHU216HW,2013-03-26 21:00:00,
2013-03-26 17:05:00,46.8,28.6,29.96,North,0,0.0,0.0,49,0.00,,,0.00,WUHU216HW,2013-03-26 21:05:00,
2013-03-26 17:30:00,46.4,26.6,29.96,North,0,0.0,0.0,46,0.00,,,0.00,WUHU216HW,2013-03-26 21:30:00,
2013-03-26 17:35:00,46.4,26.6,29.96,North,0,0.0,0.0,46,0.00,,,0.00,WUHU216HW,2013-03-26 21:35:00,
2013-03-26 18:00:00,46.4,27.7,29.97,North,0,0.0,0.0,48,0.00,,,0.00,WUHU216HW,2013-03-26 22:00:00,
2013-03-26 18:05:00,46.4,27.7,29.97,North,0,0.0,0.0,48,0.00,,,0.00,WUHU216HW,2013-03-26 22:05:00,
2013-03-26 18:30:00,45.9,27.8,29.99,North,0,0.0,0.0,49,0.00,,,0.00,WUHU216HW,2013-03-26 22:30:00,
2013-03-26 18:35:00,45.9,27.8,29.99,North,0,0.0,0.0,49,0.00,,,0.00,WUHU216HW,2013-03-26 22:35:00,
2013-03-26 19:00:00,45.2,26.0,30.00,North,0,0.0,0.0,47,0.00,,,0.00,WUHU216HW,2013-03-26 23:00:00,
2013-03-26 19:05:00,45.2,26.0,30.00,North,0,0.0,0.0,47,0.00,,,0.00,WUHU216HW,2013-03-26 23:05:00,
2013-03-26 19:30:00,44.8,25.8,30.01,North,0,0.0,0.0,47,0.00,,,0.00,WUHU216HW,2013-03-26 23:30:00,
2013-03-26 19:35:00,44.8,25.8,30.01,North,0,0.0,0.0,47,0.00,,,0.00,WUHU216HW,2013-03-26 23:35:00,
2013-03-26 20:00:00,43.9,26.0,30.03,North,0,0.0,0.0,49,0.00,,,0.00,WUHU216HW,2013-03-27 00:00:00,
2013-03-26 20:05:00,43.9,26.0,30.03,North,0,0.0,0.0,49,0.00,,,0.00,WUHU216HW,2013-03-27 00:05:00,
2013-03-26 20:30:00,42.7,26.3,30.04,North,0,0.0,0.0,52,0.00,,,0.00,WUHU216HW,2013-03-27 00:30:00,
2013-03-26 20:35:00,42.7,26.3,30.04,North,0,0.0,0.0,52,0.00,,,0.00,WUHU216HW,2013-03-27 00:35:00,
2013-03-26 21:00:00,41.8,25.8,30.05,North,0,0.0,0.0,53,0.00,,,0.00,WUHU216HW,2013-03-27 01:00:00,
2013-03-26 21:05:00,41.8,25.8,30.05,North,0,0.0,0.0,53,0.00,,,0.00,WUHU216HW,2013-03-27 01:05:00,
2013-03-26 21:30:00,40.7,25.2,30.07,North,0,0.0,0.0,54,0.00,,,0.00,WUHU216HW,2013-03-27 01:30:00,
2013-03-26 21:35:00,40.7,25.2,30.07,North,0,0.0,0.0,54,0.00,,,0.00,WUHU216HW,2013-03-27 01:35:00,
2013-03-26 22:00:00,39.6,25.5,30.08,North,0,0.0,0.0,57,0.00,,,0.00,WUHU216HW,2013-03-27 02:00:00,
2013-03-26 22:05:00,39.6,25.5,30.08,North,0,0.0,0.0,57,0.00,,,0.00,WUHU216HW,2013-03-27 02:05:00,
2013-03-26 22:30:00,38.7,25.6,30.09,North,0,0.0,0.0,59,0.00,,,0.00,WUHU216HW,2013-03-27 02:30:00,
2013-03-26 22:35:00,38.7,25.6,30.09,North,0,0.0,0.0,59,0.00,,,0.00,WUHU216HW,2013-03-27 02:35:00,
2013-03-26 23:00:00,37.6,25.4,30.10,North,0,0.0,0.0,61,0.00,,,0.00,WUHU216HW,2013-03-27 03:00:00,
2013-03-26 23:05:00,37.6,25.4,30.10,North,0,0.0,0.0,61,0.00,,,0.00,WUHU216HW,2013-03-27 03:05:00,
2013-03-26 23:30:00,37.4,25.6,30.10,North,0,0.0,0.0,62,0.00,,,0.00,WUHU216HW,2013-03-27 03:30:00,
2013-03-26 23:35:00,37.4,25.6,30.10,North,0,0.0,0.0,62,0.00,,,0.00,WUHU216HW,2013-03-27 03:35:00,